sensor_id;sensor_type;location;lat;lon;timestamp;temperature;humidity
2839;DHT22;1427;48.510;9.060;2023-07-31T00:02:06;15.10;99.90
2839;DHT22;1427;48.510;9.060;2023-07-31T00:04:34;14.80;99.90
2839;DHT22;1427;48.510;9.060;2023-07-31T00:07:02;14.80;99.90
2839;DHT22;1427;48.510;9.060;2023-07-31T00:09:31;14.80;99.90
2839;DHT22;1427;48.510;9.060;2023-07-31T00:11:59;14.70;99.90
2839;DHT22;1427;48.510;9.060;2023-07-31T00:14:29;14.80;99.90
2839;DHT22;1427;48.510;9.060;2023-07-31T00:16:57;14.70;99.90
2839;DHT22;1427;48.510;9.060;2023-07-31T00:19:25;14.70;99.90
2839;DHT22;1427;48.510;9.060;2023-07-31T00:21:53;14.80;99.90
2839;DHT22;1427;48.510;9.060;2023-07-31T00:24:21;14.70;99.90
2839;DHT22;1427;48.510;9.060;2023-07-31T00:26:49;14.60;99.90
2839;DHT22;1427;48.510;9.060;2023-07-31T00:29:19;14.50;99.90
2839;DHT22;1427;48.510;9.060;2023-07-31T00:31:48;14.50;99.90
2839;DHT22;1427;48.510;9.060;2023-07-31T00:34:16;14.40;99.90
2839;DHT22;1427;48.510;9.060;2023-07-31T00:36:44;14.40;99.90
2839;DHT22;1427;48.510;9.060;2023-07-31T00:39:12;14.40;99.90
2839;DHT22;1427;48.510;9.060;2023-07-31T00:41:40;14.40;99.90
2839;DHT22;1427;48.510;9.060;2023-07-31T00:44:09;14.50;99.90
2839;DHT22;1427;48.510;9.060;2023-07-31T00:46:37;14.50;99.90
2839;DHT22;1427;48.510;9.060;2023-07-31T00:49:07;14.50;99.90
2839;DHT22;1427;48.510;9.060;2023-07-31T00:51:36;14.60;99.90
2839;DHT22;1427;48.510;9.060;2023-07-31T00:54:04;14.50;99.90
2839;DHT22;1427;48.510;9.060;2023-07-31T00:56:33;14.40;99.90
2839;DHT22;1427;48.510;9.060;2023-07-31T00:59:01;14.40;99.90
2839;DHT22;1427;48.510;9.060;2023-07-31T01:01:30;14.30;99.90
2839;DHT22;1427;48.510;9.060;2023-07-31T01:03:58;14.20;99.90
2839;DHT22;1427;48.510;9.060;2023-07-31T01:06:31;14.10;99.90
2839;DHT22;1427;48.510;9.060;2023-07-31T01:09:04;14.10;99.90
2839;DHT22;1427;48.510;9.060;2023-07-31T01:11:39;14.00;99.90
2839;DHT22;1427;48.510;9.060;2023-07-31T01:14:07;14.00;99.90
2839;DHT22;1427;48.510;9.060;2023-07-31T01:16:35;14.10;99.90
2839;DHT22;1427;48.510;9.060;2023-07-31T01:19:06;14.10;99.90
2839;DHT22;1427;48.510;9.060;2023-07-31T01:21:51;14.10;99.90
2839;DHT22;1427;48.510;9.060;2023-07-31T01:24:23;14.10;99.90
2839;DHT22;1427;48.510;9.060;2023-07-31T01:27:02;14.00;99.90
2839;DHT22;1427;48.510;9.060;2023-07-31T01:29:36;13.90;99.90
2839;DHT22;1427;48.510;9.060;2023-07-31T01:32:07;13.90;99.90
2839;DHT22;1427;48.510;9.060;2023-07-31T01:34:35;14.00;99.90
2839;DHT22;1427;48.510;9.060;2023-07-31T01:37:05;14.00;99.90
2839;DHT22;1427;48.510;9.060;2023-07-31T01:39:33;14.10;99.90
2839;DHT22;1427;48.510;9.060;2023-07-31T01:42:02;14.00;99.90
2839;DHT22;1427;48.510;9.060;2023-07-31T01:44:30;14.00;99.90
2839;DHT22;1427;48.510;9.060;2023-07-31T01:46:59;13.90;99.90
2839;DHT22;1427;48.510;9.060;2023-07-31T01:49:27;13.90;99.90
2839;DHT22;1427;48.510;9.060;2023-07-31T01:51:55;13.90;99.90
2839;DHT22;1427;48.510;9.060;2023-07-31T01:54:24;13.90;99.90
2839;DHT22;1427;48.510;9.060;2023-07-31T01:56:52;13.90;99.90
2839;DHT22;1427;48.510;9.060;2023-07-31T01:59:21;13.90;99.90
2839;DHT22;1427;48.510;9.060;2023-07-31T02:01:49;13.90;99.90
2839;DHT22;1427;48.510;9.060;2023-07-31T02:04:20;13.90;99.90
2839;DHT22;1427;48.510;9.060;2023-07-31T02:06:48;13.70;99.90
2839;DHT22;1427;48.510;9.060;2023-07-31T02:09:16;13.70;99.90
2839;DHT22;1427;48.510;9.060;2023-07-31T02:11:44;13.60;99.90
2839;DHT22;1427;48.510;9.060;2023-07-31T02:14:12;13.60;99.90
2839;DHT22;1427;48.510;9.060;2023-07-31T02:16:42;13.60;99.90
2839;DHT22;1427;48.510;9.060;2023-07-31T02:19:10;13.60;99.90
2839;DHT22;1427;48.510;9.060;2023-07-31T02:21:38;13.60;99.90
2839;DHT22;1427;48.510;9.060;2023-07-31T02:24:06;13.60;99.90
2839;DHT22;1427;48.510;9.060;2023-07-31T02:26:34;13.60;99.90
2839;DHT22;1427;48.510;9.060;2023-07-31T02:29:03;13.60;99.90
2839;DHT22;1427;48.510;9.060;2023-07-31T02:31:31;13.60;99.90
2839;DHT22;1427;48.510;9.060;2023-07-31T02:34:01;13.60;99.90
2839;DHT22;1427;48.510;9.060;2023-07-31T02:36:29;13.60;99.90
2839;DHT22;1427;48.510;9.060;2023-07-31T02:38:57;13.70;99.90
2839;DHT22;1427;48.510;9.060;2023-07-31T02:41:25;13.70;99.90
2839;DHT22;1427;48.510;9.060;2023-07-31T02:43:53;13.60;99.90
2839;DHT22;1427;48.510;9.060;2023-07-31T02:46:21;13.70;99.90
2839;DHT22;1427;48.510;9.060;2023-07-31T02:48:51;13.60;99.90
2839;DHT22;1427;48.510;9.060;2023-07-31T02:51:20;13.60;99.90
2839;DHT22;1427;48.510;9.060;2023-07-31T02:53:48;13.50;99.90
2839;DHT22;1427;48.510;9.060;2023-07-31T02:56:17;13.60;99.90
2839;DHT22;1427;48.510;9.060;2023-07-31T02:58:45;13.70;99.90
2839;DHT22;1427;48.510;9.060;2023-07-31T03:01:13;13.60;99.90
2839;DHT22;1427;48.510;9.060;2023-07-31T03:03:42;13.60;99.90
2839;DHT22;1427;48.510;9.060;2023-07-31T03:06:10;13.50;99.90
2839;DHT22;1427;48.510;9.060;2023-07-31T03:08:39;13.60;99.90
2839;DHT22;1427;48.510;9.060;2023-07-31T03:11:07;13.60;99.90
2839;DHT22;1427;48.510;9.060;2023-07-31T03:13:35;13.50;99.90
2839;DHT22;1427;48.510;9.060;2023-07-31T03:16:04;13.40;99.90
2839;DHT22;1427;48.510;9.060;2023-07-31T03:18:32;13.30;99.90
2839;DHT22;1427;48.510;9.060;2023-07-31T03:21:00;13.30;99.90
2839;DHT22;1427;48.510;9.060;2023-07-31T03:23:28;13.30;99.90
2839;DHT22;1427;48.510;9.060;2023-07-31T03:25:58;13.30;99.90
2839;DHT22;1427;48.510;9.060;2023-07-31T03:28:26;13.40;99.90
2839;DHT22;1427;48.510;9.060;2023-07-31T03:30:55;13.40;99.90
2839;DHT22;1427;48.510;9.060;2023-07-31T03:33:23;13.40;99.90
2839;DHT22;1427;48.510;9.060;2023-07-31T03:35:51;13.40;99.90
2839;DHT22;1427;48.510;9.060;2023-07-31T03:38:20;13.40;99.90
2839;DHT22;1427;48.510;9.060;2023-07-31T03:40:48;13.40;99.90
2839;DHT22;1427;48.510;9.060;2023-07-31T03:43:18;13.40;99.90
2839;DHT22;1427;48.510;9.060;2023-07-31T03:45:46;13.50;99.90
2839;DHT22;1427;48.510;9.060;2023-07-31T03:48:14;13.40;99.90
2839;DHT22;1427;48.510;9.060;2023-07-31T03:50:43;13.30;99.90
2839;DHT22;1427;48.510;9.060;2023-07-31T03:53:11;13.30;99.90
2839;DHT22;1427;48.510;9.060;2023-07-31T03:55:39;13.20;99.90
2839;DHT22;1427;48.510;9.060;2023-07-31T03:58:07;13.20;99.90
2839;DHT22;1427;48.510;9.060;2023-07-31T04:00:36;13.10;99.90
2839;DHT22;1427;48.510;9.060;2023-07-31T04:03:04;13.10;99.90
2839;DHT22;1427;48.510;9.060;2023-07-31T04:05:32;13.00;99.90
2839;DHT22;1427;48.510;9.060;2023-07-31T04:08:01;12.90;99.90
2839;DHT22;1427;48.510;9.060;2023-07-31T04:10:29;12.90;99.90
2839;DHT22;1427;48.510;9.060;2023-07-31T04:13:00;13.10;99.90
2839;DHT22;1427;48.510;9.060;2023-07-31T04:15:28;13.10;99.90
2839;DHT22;1427;48.510;9.060;2023-07-31T04:17:57;13.20;99.90
2839;DHT22;1427;48.510;9.060;2023-07-31T04:20:25;13.20;99.90
2839;DHT22;1427;48.510;9.060;2023-07-31T04:22:53;13.20;99.90
2839;DHT22;1427;48.510;9.060;2023-07-31T04:25:22;13.60;99.90
2839;DHT22;1427;48.510;9.060;2023-07-31T04:27:50;13.50;99.90
2839;DHT22;1427;48.510;9.060;2023-07-31T04:30:18;13.50;99.90
2839;DHT22;1427;48.510;9.060;2023-07-31T04:32:46;13.40;99.90
2839;DHT22;1427;48.510;9.060;2023-07-31T04:35:15;13.60;99.90
2839;DHT22;1427;48.510;9.060;2023-07-31T04:37:43;13.60;99.90
2839;DHT22;1427;48.510;9.060;2023-07-31T04:40:15;13.70;99.90
2839;DHT22;1427;48.510;9.060;2023-07-31T04:42:44;13.70;99.90
2839;DHT22;1427;48.510;9.060;2023-07-31T04:45:13;13.70;99.90
2839;DHT22;1427;48.510;9.060;2023-07-31T04:47:41;13.80;99.90
2839;DHT22;1427;48.510;9.060;2023-07-31T04:50:10;13.80;99.90
2839;DHT22;1427;48.510;9.060;2023-07-31T04:52:39;13.90;99.90
2839;DHT22;1427;48.510;9.060;2023-07-31T04:55:08;13.90;99.90
2839;DHT22;1427;48.510;9.060;2023-07-31T04:57:36;14.10;99.90
2839;DHT22;1427;48.510;9.060;2023-07-31T05:00:05;14.20;99.90
2839;DHT22;1427;48.510;9.060;2023-07-31T05:02:34;14.10;99.90
2839;DHT22;1427;48.510;9.060;2023-07-31T05:05:02;14.10;99.90
2839;DHT22;1427;48.510;9.060;2023-07-31T05:07:30;14.10;99.90
2839;DHT22;1427;48.510;9.060;2023-07-31T05:10:00;14.00;99.90
2839;DHT22;1427;48.510;9.060;2023-07-31T05:12:28;14.00;99.90
2839;DHT22;1427;48.510;9.060;2023-07-31T05:14:56;14.10;99.90
2839;DHT22;1427;48.510;9.060;2023-07-31T05:17:24;14.20;99.90
2839;DHT22;1427;48.510;9.060;2023-07-31T05:19:52;14.20;99.90
2839;DHT22;1427;48.510;9.060;2023-07-31T05:22:20;14.40;99.90
2839;DHT22;1427;48.510;9.060;2023-07-31T05:24:48;14.40;99.90
2839;DHT22;1427;48.510;9.060;2023-07-31T05:27:17;14.50;99.90
2839;DHT22;1427;48.510;9.060;2023-07-31T05:29:46;14.60;99.90
2839;DHT22;1427;48.510;9.060;2023-07-31T05:34:42;15.10;99.90
2839;DHT22;1427;48.510;9.060;2023-07-31T05:37:11;15.40;99.90
2839;DHT22;1427;48.510;9.060;2023-07-31T05:39:39;15.70;99.90
2839;DHT22;1427;48.510;9.060;2023-07-31T05:42:07;15.80;99.90
2839;DHT22;1427;48.510;9.060;2023-07-31T05:44:37;16.00;99.90
2839;DHT22;1427;48.510;9.060;2023-07-31T05:47:05;16.20;99.90
2839;DHT22;1427;48.510;9.060;2023-07-31T05:49:33;16.30;99.90
2839;DHT22;1427;48.510;9.060;2023-07-31T05:52:02;16.50;99.90
2839;DHT22;1427;48.510;9.060;2023-07-31T05:54:31;16.50;99.90
2839;DHT22;1427;48.510;9.060;2023-07-31T05:56:59;16.50;99.90
2839;DHT22;1427;48.510;9.060;2023-07-31T05:59:27;16.50;99.90
2839;DHT22;1427;48.510;9.060;2023-07-31T06:01:57;16.50;99.90
2839;DHT22;1427;48.510;9.060;2023-07-31T06:04:25;16.40;99.90
2839;DHT22;1427;48.510;9.060;2023-07-31T06:06:53;16.20;99.90
2839;DHT22;1427;48.510;9.060;2023-07-31T06:09:22;16.20;99.90
2839;DHT22;1427;48.510;9.060;2023-07-31T06:11:50;16.10;99.90
2839;DHT22;1427;48.510;9.060;2023-07-31T06:14:18;16.10;99.90
2839;DHT22;1427;48.510;9.060;2023-07-31T06:16:46;16.00;99.90
2839;DHT22;1427;48.510;9.060;2023-07-31T06:19:16;16.10;99.90
2839;DHT22;1427;48.510;9.060;2023-07-31T06:21:44;16.10;99.90
2839;DHT22;1427;48.510;9.060;2023-07-31T06:24:12;16.20;99.90
2839;DHT22;1427;48.510;9.060;2023-07-31T06:26:46;16.30;99.90
2839;DHT22;1427;48.510;9.060;2023-07-31T06:29:14;16.40;99.90
2839;DHT22;1427;48.510;9.060;2023-07-31T06:31:42;16.30;99.90
2839;DHT22;1427;48.510;9.060;2023-07-31T06:34:10;16.30;99.90
2839;DHT22;1427;48.510;9.060;2023-07-31T06:36:40;16.30;99.90
2839;DHT22;1427;48.510;9.060;2023-07-31T06:39:08;16.30;99.90
2839;DHT22;1427;48.510;9.060;2023-07-31T06:41:37;16.40;99.90
2839;DHT22;1427;48.510;9.060;2023-07-31T06:44:05;16.60;99.90
2839;DHT22;1427;48.510;9.060;2023-07-31T06:46:34;16.90;99.90
2839;DHT22;1427;48.510;9.060;2023-07-31T06:49:02;17.10;99.90
2839;DHT22;1427;48.510;9.060;2023-07-31T06:51:30;17.30;99.90
2839;DHT22;1427;48.510;9.060;2023-07-31T06:54:00;17.40;99.90
2839;DHT22;1427;48.510;9.060;2023-07-31T06:56:28;17.60;99.90
2839;DHT22;1427;48.510;9.060;2023-07-31T06:58:56;17.70;99.90
2839;DHT22;1427;48.510;9.060;2023-07-31T07:01:24;17.70;99.90
2839;DHT22;1427;48.510;9.060;2023-07-31T07:03:52;17.80;99.90
2839;DHT22;1427;48.510;9.060;2023-07-31T07:06:22;17.60;99.90
2839;DHT22;1427;48.510;9.060;2023-07-31T07:08:50;17.70;99.90
2839;DHT22;1427;48.510;9.060;2023-07-31T07:11:20;17.80;99.90
2839;DHT22;1427;48.510;9.060;2023-07-31T07:13:48;18.00;99.90
2839;DHT22;1427;48.510;9.060;2023-07-31T07:16:16;18.10;99.90
2839;DHT22;1427;48.510;9.060;2023-07-31T07:18:44;18.10;99.90
2839;DHT22;1427;48.510;9.060;2023-07-31T07:21:24;18.30;99.90
2839;DHT22;1427;48.510;9.060;2023-07-31T07:23:52;18.30;99.90
2839;DHT22;1427;48.510;9.060;2023-07-31T07:26:21;18.40;99.90
2839;DHT22;1427;48.510;9.060;2023-07-31T07:28:50;18.50;99.90
2839;DHT22;1427;48.510;9.060;2023-07-31T07:31:18;18.70;99.90
2839;DHT22;1427;48.510;9.060;2023-07-31T07:33:46;18.90;99.90
2839;DHT22;1427;48.510;9.060;2023-07-31T07:36:14;19.10;99.90
2839;DHT22;1427;48.510;9.060;2023-07-31T07:38:42;19.20;99.90
2839;DHT22;1427;48.510;9.060;2023-07-31T07:41:10;19.20;99.90
2839;DHT22;1427;48.510;9.060;2023-07-31T07:43:40;19.10;99.90
2839;DHT22;1427;48.510;9.060;2023-07-31T07:46:08;19.20;99.90
2839;DHT22;1427;48.510;9.060;2023-07-31T07:48:36;19.30;99.90
2839;DHT22;1427;48.510;9.060;2023-07-31T07:51:04;19.40;99.90
2839;DHT22;1427;48.510;9.060;2023-07-31T07:53:32;19.50;99.90
2839;DHT22;1427;48.510;9.060;2023-07-31T07:56:00;19.80;99.90
2839;DHT22;1427;48.510;9.060;2023-07-31T07:58:28;20.10;99.90
2839;DHT22;1427;48.510;9.060;2023-07-31T08:00:57;20.20;99.90
2839;DHT22;1427;48.510;9.060;2023-07-31T08:03:26;20.30;99.90
2839;DHT22;1427;48.510;9.060;2023-07-31T08:05:58;20.40;99.90
2839;DHT22;1427;48.510;9.060;2023-07-31T08:08:27;20.60;99.90
2839;DHT22;1427;48.510;9.060;2023-07-31T08:10:55;20.60;99.90
2839;DHT22;1427;48.510;9.060;2023-07-31T08:13:24;20.50;99.90
2839;DHT22;1427;48.510;9.060;2023-07-31T08:15:52;20.50;99.90
2839;DHT22;1427;48.510;9.060;2023-07-31T08:18:22;20.60;99.90
2839;DHT22;1427;48.510;9.060;2023-07-31T08:20:50;20.80;99.90
2839;DHT22;1427;48.510;9.060;2023-07-31T08:23:18;21.00;99.90
2839;DHT22;1427;48.510;9.060;2023-07-31T08:25:46;21.00;99.90
2839;DHT22;1427;48.510;9.060;2023-07-31T08:28:16;21.10;99.90
2839;DHT22;1427;48.510;9.060;2023-07-31T08:30:44;21.00;99.90
2839;DHT22;1427;48.510;9.060;2023-07-31T08:33:13;21.10;99.90
2839;DHT22;1427;48.510;9.060;2023-07-31T08:35:42;21.20;99.90
2839;DHT22;1427;48.510;9.060;2023-07-31T08:38:11;21.50;99.90
2839;DHT22;1427;48.510;9.060;2023-07-31T08:40:39;21.60;99.90
2839;DHT22;1427;48.510;9.060;2023-07-31T08:43:09;21.70;99.90
2839;DHT22;1427;48.510;9.060;2023-07-31T08:45:37;21.60;99.80
2839;DHT22;1427;48.510;9.060;2023-07-31T08:48:06;21.50;99.90
2839;DHT22;1427;48.510;9.060;2023-07-31T08:50:34;21.50;99.80
2839;DHT22;1427;48.510;9.060;2023-07-31T08:53:04;21.30;99.90
2839;DHT22;1427;48.510;9.060;2023-07-31T08:55:32;21.20;99.90
2839;DHT22;1427;48.510;9.060;2023-07-31T08:58:02;21.30;99.90
2839;DHT22;1427;48.510;9.060;2023-07-31T09:00:32;21.20;99.90
2839;DHT22;1427;48.510;9.060;2023-07-31T09:03:03;21.50;99.90
2839;DHT22;1427;48.510;9.060;2023-07-31T09:05:36;21.60;99.50
2839;DHT22;1427;48.510;9.060;2023-07-31T09:08:09;21.50;99.40
2839;DHT22;1427;48.510;9.060;2023-07-31T09:10:41;21.30;99.90
2839;DHT22;1427;48.510;9.060;2023-07-31T09:13:09;21.30;99.90
2839;DHT22;1427;48.510;9.060;2023-07-31T09:15:39;21.20;99.90
2839;DHT22;1427;48.510;9.060;2023-07-31T09:18:08;21.30;99.90
2839;DHT22;1427;48.510;9.060;2023-07-31T09:20:37;21.50;99.90
2839;DHT22;1427;48.510;9.060;2023-07-31T09:23:08;21.60;99.80
2839;DHT22;1427;48.510;9.060;2023-07-31T09:25:37;21.80;99.90
2839;DHT22;1427;48.510;9.060;2023-07-31T09:28:07;21.70;99.20
2839;DHT22;1427;48.510;9.060;2023-07-31T09:30:46;21.80;99.90
2839;DHT22;1427;48.510;9.060;2023-07-31T09:33:17;21.70;99.40
2839;DHT22;1427;48.510;9.060;2023-07-31T09:35:46;21.70;99.60
2839;DHT22;1427;48.510;9.060;2023-07-31T09:38:16;21.60;99.70
2839;DHT22;1427;48.510;9.060;2023-07-31T09:40:46;21.60;99.90
2839;DHT22;1427;48.510;9.060;2023-07-31T09:43:18;21.70;99.90
2839;DHT22;1427;48.510;9.060;2023-07-31T09:45:46;21.60;99.70
2839;DHT22;1427;48.510;9.060;2023-07-31T09:48:16;21.70;99.80
2839;DHT22;1427;48.510;9.060;2023-07-31T09:50:46;21.70;99.90
2839;DHT22;1427;48.510;9.060;2023-07-31T09:53:17;21.80;99.60
2839;DHT22;1427;48.510;9.060;2023-07-31T09:55:45;21.90;99.30
2839;DHT22;1427;48.510;9.060;2023-07-31T09:58:13;22.00;99.50
2839;DHT22;1427;48.510;9.060;2023-07-31T10:00:41;22.20;99.20
2839;DHT22;1427;48.510;9.060;2023-07-31T10:03:10;22.40;99.40
2839;DHT22;1427;48.510;9.060;2023-07-31T10:05:42;22.40;98.60
2839;DHT22;1427;48.510;9.060;2023-07-31T10:08:13;22.50;98.80
2839;DHT22;1427;48.510;9.060;2023-07-31T10:10:44;22.50;98.10
2839;DHT22;1427;48.510;9.060;2023-07-31T10:13:13;22.60;98.30
2839;DHT22;1427;48.510;9.060;2023-07-31T10:15:42;22.80;98.20
2839;DHT22;1427;48.510;9.060;2023-07-31T10:18:11;22.80;98.20
2839;DHT22;1427;48.510;9.060;2023-07-31T10:20:40;22.90;98.20
2839;DHT22;1427;48.510;9.060;2023-07-31T10:23:09;22.90;97.70
2839;DHT22;1427;48.510;9.060;2023-07-31T10:25:38;23.00;97.70
2839;DHT22;1427;48.510;9.060;2023-07-31T10:28:08;22.90;97.60
2839;DHT22;1427;48.510;9.060;2023-07-31T10:30:38;22.80;98.10
2839;DHT22;1427;48.510;9.060;2023-07-31T10:33:07;22.90;97.70
2839;DHT22;1427;48.510;9.060;2023-07-31T10:35:36;22.90;97.60
2839;DHT22;1427;48.510;9.060;2023-07-31T10:38:09;23.10;97.50
2839;DHT22;1427;48.510;9.060;2023-07-31T10:40:38;23.00;97.40
2839;DHT22;1427;48.510;9.060;2023-07-31T10:43:08;22.90;97.40
2839;DHT22;1427;48.510;9.060;2023-07-31T10:45:39;22.80;97.30
2839;DHT22;1427;48.510;9.060;2023-07-31T10:48:12;22.80;97.80
2839;DHT22;1427;48.510;9.060;2023-07-31T10:50:47;22.90;97.40
2839;DHT22;1427;48.510;9.060;2023-07-31T10:53:23;23.20;97.40
2839;DHT22;1427;48.510;9.060;2023-07-31T10:55:51;23.40;97.00
2839;DHT22;1427;48.510;9.060;2023-07-31T10:58:22;23.60;97.20
2839;DHT22;1427;48.510;9.060;2023-07-31T11:00:51;23.90;96.70
2839;DHT22;1427;48.510;9.060;2023-07-31T11:03:26;23.80;96.30
2839;DHT22;1427;48.510;9.060;2023-07-31T11:06:00;23.80;96.70
2839;DHT22;1427;48.510;9.060;2023-07-31T11:08:32;23.80;96.00
2839;DHT22;1427;48.510;9.060;2023-07-31T11:11:08;24.00;95.70
2839;DHT22;1427;48.510;9.060;2023-07-31T11:13:45;24.10;94.90
2839;DHT22;1427;48.510;9.060;2023-07-31T11:16:17;24.00;95.40
2839;DHT22;1427;48.510;9.060;2023-07-31T11:18:46;24.40;95.60
2839;DHT22;1427;48.510;9.060;2023-07-31T11:21:16;24.40;95.20
2839;DHT22;1427;48.510;9.060;2023-07-31T11:23:46;24.30;95.00
2839;DHT22;1427;48.510;9.060;2023-07-31T11:26:14;24.60;95.70
2839;DHT22;1427;48.510;9.060;2023-07-31T11:28:46;25.00;95.20
2839;DHT22;1427;48.510;9.060;2023-07-31T11:31:15;25.10;94.30
2839;DHT22;1427;48.510;9.060;2023-07-31T11:33:43;25.10;94.40
2839;DHT22;1427;48.510;9.060;2023-07-31T11:36:15;24.80;94.90
2839;DHT22;1427;48.510;9.060;2023-07-31T11:38:43;25.00;94.60
2839;DHT22;1427;48.510;9.060;2023-07-31T11:41:14;24.90;94.50
2839;DHT22;1427;48.510;9.060;2023-07-31T11:43:44;24.90;94.60
2839;DHT22;1427;48.510;9.060;2023-07-31T11:46:13;24.70;94.70
2839;DHT22;1427;48.510;9.060;2023-07-31T11:48:42;24.70;94.60
2839;DHT22;1427;48.510;9.060;2023-07-31T11:51:12;24.70;94.60
2839;DHT22;1427;48.510;9.060;2023-07-31T11:53:43;24.40;94.60
2839;DHT22;1427;48.510;9.060;2023-07-31T11:56:14;24.20;94.90
2839;DHT22;1427;48.510;9.060;2023-07-31T11:58:46;24.00;94.90
2839;DHT22;1427;48.510;9.060;2023-07-31T12:01:16;23.90;94.90
2839;DHT22;1427;48.510;9.060;2023-07-31T12:03:47;23.80;95.40
2839;DHT22;1427;48.510;9.060;2023-07-31T12:06:15;23.60;95.80
2839;DHT22;1427;48.510;9.060;2023-07-31T12:08:43;23.60;96.50
2839;DHT22;1427;48.510;9.060;2023-07-31T12:11:11;23.50;97.20
2839;DHT22;1427;48.510;9.060;2023-07-31T12:13:40;23.60;97.80
2839;DHT22;1427;48.510;9.060;2023-07-31T12:16:09;23.60;97.40
2839;DHT22;1427;48.510;9.060;2023-07-31T12:18:38;23.50;97.80
2839;DHT22;1427;48.510;9.060;2023-07-31T12:21:08;23.40;98.00
2839;DHT22;1427;48.510;9.060;2023-07-31T12:23:38;23.40;98.30
2839;DHT22;1427;48.510;9.060;2023-07-31T12:26:10;23.50;98.10
2839;DHT22;1427;48.510;9.060;2023-07-31T12:28:40;23.70;98.10
2839;DHT22;1427;48.510;9.060;2023-07-31T12:31:12;23.80;98.10
2839;DHT22;1427;48.510;9.060;2023-07-31T12:33:41;23.90;97.50
2839;DHT22;1427;48.510;9.060;2023-07-31T12:36:10;23.90;97.40
2839;DHT22;1427;48.510;9.060;2023-07-31T12:38:39;24.00;96.90
2839;DHT22;1427;48.510;9.060;2023-07-31T12:41:07;24.00;96.70
2839;DHT22;1427;48.510;9.060;2023-07-31T12:43:36;24.00;96.00
2839;DHT22;1427;48.510;9.060;2023-07-31T12:46:05;24.00;96.30
2839;DHT22;1427;48.510;9.060;2023-07-31T12:48:37;24.10;96.30
2839;DHT22;1427;48.510;9.060;2023-07-31T12:51:05;24.30;96.20
2839;DHT22;1427;48.510;9.060;2023-07-31T12:53:34;24.50;96.00
2839;DHT22;1427;48.510;9.060;2023-07-31T12:56:03;24.60;95.80
2839;DHT22;1427;48.510;9.060;2023-07-31T12:58:31;24.70;95.90
2839;DHT22;1427;48.510;9.060;2023-07-31T13:00:59;24.70;95.90
2839;DHT22;1427;48.510;9.060;2023-07-31T13:03:29;24.70;96.30
2839;DHT22;1427;48.510;9.060;2023-07-31T13:05:58;24.70;96.10
2839;DHT22;1427;48.510;9.060;2023-07-31T13:08:26;24.70;96.10
2839;DHT22;1427;48.510;9.060;2023-07-31T13:10:54;24.70;95.50
2839;DHT22;1427;48.510;9.060;2023-07-31T13:13:22;24.70;95.20
2839;DHT22;1427;48.510;9.060;2023-07-31T13:15:51;24.70;95.30
2839;DHT22;1427;48.510;9.060;2023-07-31T13:18:19;24.50;94.60
2839;DHT22;1427;48.510;9.060;2023-07-31T13:20:47;24.40;94.80
2839;DHT22;1427;48.510;9.060;2023-07-31T13:23:17;24.30;94.70
2839;DHT22;1427;48.510;9.060;2023-07-31T13:25:45;24.30;94.70
2839;DHT22;1427;48.510;9.060;2023-07-31T13:28:13;24.20;94.30
2839;DHT22;1427;48.510;9.060;2023-07-31T13:30:41;24.00;94.60
2839;DHT22;1427;48.510;9.060;2023-07-31T13:33:09;23.90;94.80
2839;DHT22;1427;48.510;9.060;2023-07-31T13:35:57;23.70;94.60
2839;DHT22;1427;48.510;9.060;2023-07-31T13:38:27;23.50;94.80
2839;DHT22;1427;48.510;9.060;2023-07-31T13:40:55;23.50;95.10
2839;DHT22;1427;48.510;9.060;2023-07-31T13:43:23;23.30;95.20
2839;DHT22;1427;48.510;9.060;2023-07-31T13:45:51;23.20;95.40
2839;DHT22;1427;48.510;9.060;2023-07-31T13:48:19;23.00;95.50
2839;DHT22;1427;48.510;9.060;2023-07-31T13:50:48;23.00;95.90
2839;DHT22;1427;48.510;9.060;2023-07-31T13:53:16;22.90;96.10
2839;DHT22;1427;48.510;9.060;2023-07-31T13:55:45;22.70;95.80
2839;DHT22;1427;48.510;9.060;2023-07-31T13:58:16;22.70;95.70
2839;DHT22;1427;48.510;9.060;2023-07-31T14:00:44;22.50;96.00
2839;DHT22;1427;48.510;9.060;2023-07-31T14:03:12;22.60;96.20
2839;DHT22;1427;48.510;9.060;2023-07-31T14:05:40;22.60;96.30
2839;DHT22;1427;48.510;9.060;2023-07-31T14:08:08;22.60;96.00
2839;DHT22;1427;48.510;9.060;2023-07-31T14:10:39;22.50;96.50
2839;DHT22;1427;48.510;9.060;2023-07-31T14:13:08;22.50;96.60
2839;DHT22;1427;48.510;9.060;2023-07-31T14:15:36;22.50;96.70
2839;DHT22;1427;48.510;9.060;2023-07-31T14:18:04;22.50;97.00
2839;DHT22;1427;48.510;9.060;2023-07-31T14:20:33;22.50;97.10
2839;DHT22;1427;48.510;9.060;2023-07-31T14:23:02;22.40;97.30
2839;DHT22;1427;48.510;9.060;2023-07-31T14:25:30;22.40;97.20
2839;DHT22;1427;48.510;9.060;2023-07-31T14:27:58;22.40;97.40
2839;DHT22;1427;48.510;9.060;2023-07-31T14:30:28;22.40;97.60
2839;DHT22;1427;48.510;9.060;2023-07-31T14:32:56;22.30;97.10
2839;DHT22;1427;48.510;9.060;2023-07-31T14:35:24;22.30;97.10
2839;DHT22;1427;48.510;9.060;2023-07-31T14:37:52;22.30;97.00
2839;DHT22;1427;48.510;9.060;2023-07-31T14:40:20;22.30;97.00
2839;DHT22;1427;48.510;9.060;2023-07-31T14:42:48;22.20;96.80
2839;DHT22;1427;48.510;9.060;2023-07-31T14:45:16;22.20;97.20
2839;DHT22;1427;48.510;9.060;2023-07-31T14:47:46;22.20;97.40
2839;DHT22;1427;48.510;9.060;2023-07-31T14:50:15;22.20;97.60
2839;DHT22;1427;48.510;9.060;2023-07-31T14:52:46;22.10;97.70
2839;DHT22;1427;48.510;9.060;2023-07-31T14:55:14;22.10;97.90
2839;DHT22;1427;48.510;9.060;2023-07-31T14:57:43;22.10;98.00
2839;DHT22;1427;48.510;9.060;2023-07-31T15:00:11;22.10;98.10
2839;DHT22;1427;48.510;9.060;2023-07-31T15:02:40;22.10;98.20
2839;DHT22;1427;48.510;9.060;2023-07-31T15:05:10;22.10;98.20
2839;DHT22;1427;48.510;9.060;2023-07-31T15:07:38;22.10;98.30
2839;DHT22;1427;48.510;9.060;2023-07-31T15:10:07;22.10;98.50
2839;DHT22;1427;48.510;9.060;2023-07-31T15:12:35;22.10;98.50
2839;DHT22;1427;48.510;9.060;2023-07-31T15:15:05;22.10;98.40
2839;DHT22;1427;48.510;9.060;2023-07-31T15:17:34;22.20;98.60
2839;DHT22;1427;48.510;9.060;2023-07-31T15:20:02;22.20;98.60
2839;DHT22;1427;48.510;9.060;2023-07-31T15:22:32;22.20;98.70
2839;DHT22;1427;48.510;9.060;2023-07-31T15:25:00;22.20;98.90
2839;DHT22;1427;48.510;9.060;2023-07-31T15:27:28;22.20;98.90
2839;DHT22;1427;48.510;9.060;2023-07-31T15:29:56;22.20;98.80
2839;DHT22;1427;48.510;9.060;2023-07-31T15:32:24;22.30;99.20
2839;DHT22;1427;48.510;9.060;2023-07-31T15:34:52;22.30;98.80
2839;DHT22;1427;48.510;9.060;2023-07-31T15:37:20;22.40;98.80
2839;DHT22;1427;48.510;9.060;2023-07-31T15:39:50;22.40;98.90
2839;DHT22;1427;48.510;9.060;2023-07-31T15:42:18;22.40;98.90
2839;DHT22;1427;48.510;9.060;2023-07-31T15:44:46;22.50;98.90
2839;DHT22;1427;48.510;9.060;2023-07-31T15:47:14;22.60;98.90
2839;DHT22;1427;48.510;9.060;2023-07-31T15:49:42;22.60;99.20
2839;DHT22;1427;48.510;9.060;2023-07-31T15:52:10;22.80;99.20
2839;DHT22;1427;48.510;9.060;2023-07-31T15:54:38;22.80;99.70
2839;DHT22;1427;48.510;9.060;2023-07-31T15:57:08;22.70;99.40
2839;DHT22;1427;48.510;9.060;2023-07-31T15:59:36;22.80;99.50
2839;DHT22;1427;48.510;9.060;2023-07-31T16:02:04;22.70;99.60
2839;DHT22;1427;48.510;9.060;2023-07-31T16:04:33;22.70;99.90
2839;DHT22;1427;48.510;9.060;2023-07-31T16:07:01;22.60;99.70
2839;DHT22;1427;48.510;9.060;2023-07-31T16:09:29;22.60;99.50
2839;DHT22;1427;48.510;9.060;2023-07-31T16:11:57;22.70;99.90
2839;DHT22;1427;48.510;9.060;2023-07-31T16:14:27;22.70;99.90
2839;DHT22;1427;48.510;9.060;2023-07-31T16:16:55;22.80;99.90